Time;durP1;ratioP1;P1;durP2;ratioP2;P2;SDS_P1;SDS_P2;PMS_P1;PMS_P2;Temp;Humidity;BMP_temperature;BMP_pressure;BME280_temperature;BME280_humidity;BME280_pressure;Samples;Min_cycle;Max_cycle;Signal;HPM_P1;HPM_P2
2020/12/02 00:01:39;;;;;;;14.87;13.23;;;5.40;99.90;;;;;;10589811;28;20314;-81
2020/12/02 00:06:41;;;;;;;15.77;13.57;;;5.40;99.90;;;;;;10569360;28;20220;-80
2020/12/02 00:11:45;;;;;;;16.80;13.07;;;5.40;99.90;;;;;;10576096;28;20651;-82
2020/12/02 00:16:47;;;;;;;15.53;13.23;;;5.40;99.90;;;;;;10591575;28;20207;-81
2020/12/02 00:22:00;;;;;;;16.73;14.40;;;5.40;99.90;;;;;;10576923;28;21063;-81
2020/12/02 00:27:06;;;;;;;18.20;14.40;;;5.40;99.90;;;;;;10575483;28;20246;-80
2020/12/02 00:32:08;;;;;;;15.63;12.97;;;5.30;99.90;;;;;;10588658;28;20187;-80
2020/12/02 00:37:12;;;;;;;15.53;13.17;;;5.30;99.90;;;;;;10585976;28;20707;-79
2020/12/02 00:42:15;;;;;;;15.40;13.23;;;5.30;99.90;;;;;;10569551;28;20219;-81
2020/12/02 00:47:20;;;;;;;16.60;14.20;;;5.40;99.90;;;;;;10586828;28;20215;-81
2020/12/02 00:52:23;;;;;;;16.30;13.80;;;5.30;99.90;;;;;;10587582;28;20222;-80
2020/12/02 00:57:29;;;;;;;16.60;14.80;;;5.30;99.90;;;;;;10586722;28;20227;-80
2020/12/02 01:02:37;;;;;;;15.33;13.20;;;5.30;99.90;;;;;;10574136;28;20315;-82
2020/12/02 01:07:40;;;;;;;17.60;14.00;;;5.30;99.90;;;;;;10587541;28;20594;-80
2020/12/02 01:12:46;;;;;;;18.97;15.67;;;5.30;99.90;;;;;;10589942;28;20655;-81
2020/12/02 01:18:16;;;;;;;18.47;15.30;;;5.30;99.90;;;;;;10590977;28;20247;-81
2020/12/02 01:23:18;;;;;;;20.50;16.50;;;5.40;99.90;;;;;;10587777;28;20631;-81
2020/12/02 01:28:25;;;;;;;18.63;15.43;;;5.40;99.90;;;;;;10569330;28;20216;-79
2020/12/02 01:33:27;;;;;;;15.83;13.50;;;5.40;99.90;;;;;;10559373;28;20279;-82
2020/12/02 01:38:35;;;;;;;18.20;15.57;;;5.30;99.90;;;;;;10563262;28;20314;-80
2020/12/02 01:43:39;;;;;;;15.77;13.83;;;5.30;99.90;;;;;;10572965;28;20199;-80
2020/12/02 01:48:56;;;;;;;18.17;15.23;;;5.30;99.90;;;;;;10569417;28;20264;-81
2020/12/02 01:54:02;;;;;;;16.80;14.00;;;5.30;99.90;;;;;;10583424;28;20191;-80
2020/12/02 01:59:18;;;;;;;17.33;14.63;;;5.40;99.90;;;;;;10551909;28;20270;-81
2020/12/02 02:04:27;;;;;;;17.13;14.50;;;5.30;99.90;;;;;;10581367;28;20757;-79
2020/12/02 02:09:29;;;;;;;16.13;14.20;;;5.30;99.90;;;;;;10569053;28;20695;-80
2020/12/02 02:14:43;;;;;;;17.07;14.40;;;5.30;99.90;;;;;;10586274;28;20187;-80
2020/12/02 02:19:45;;;;;;;15.80;13.33;;;5.30;99.90;;;;;;10585732;28;20218;-79
2020/12/02 02:24:48;;;;;;;16.23;14.63;;;5.30;99.90;;;;;;10567554;28;20633;-80
2020/12/02 02:29:52;;;;;;;15.13;12.83;;;5.20;99.90;;;;;;10547872;28;20200;-79
2020/12/02 02:34:56;;;;;;;14.63;12.97;;;5.30;99.90;;;;;;10572405;27;20229;-80
2020/12/02 02:39:59;;;;;;;16.77;14.43;;;5.30;99.90;;;;;;10559853;28;20306;-81
2020/12/02 02:45:07;;;;;;;15.67;12.70;;;5.30;99.90;;;;;;10551502;28;20227;-81
2020/12/02 02:50:12;;;;;;;15.77;13.40;;;5.30;99.90;;;;;;10587199;28;20205;-79
2020/12/02 02:55:18;;;;;;;17.60;14.30;;;5.30;99.90;;;;;;10548198;27;20306;-80
2020/12/02 03:00:24;;;;;;;16.67;14.03;;;5.30;99.90;;;;;;10546609;28;20204;-82
2020/12/02 03:05:26;;;;;;;17.17;14.77;;;5.30;99.90;;;;;;10557333;28;20585;-81
2020/12/02 03:10:29;;;;;;;13.70;12.10;;;5.20;99.90;;;;;;10589233;28;20183;-81
2020/12/02 03:15:32;;;;;;;14.90;12.73;;;5.20;99.90;;;;;;10588981;28;20221;-80
2020/12/02 03:20:38;;;;;;;17.23;14.63;;;5.20;99.90;;;;;;10592893;28;20233;-80
2020/12/02 03:25:42;;;;;;;17.27;14.30;;;5.20;99.90;;;;;;10585342;28;20247;-81
2020/12/02 03:30:44;;;;;;;16.93;12.30;;;5.30;99.90;;;;;;10586734;27;20195;-80
2020/12/02 03:35:46;;;;;;;15.67;13.87;;;5.30;99.90;;;;;;10587494;27;20323;-81
2020/12/02 03:40:48;;;;;;;14.80;13.20;;;5.30;99.90;;;;;;10587520;28;20217;-80
2020/12/02 03:45:51;;;;;;;16.07;14.13;;;5.30;99.90;;;;;;10559032;28;20584;-81
2020/12/02 03:50:52;;;;;;;13.80;12.33;;;5.30;99.90;;;;;;10568862;28;20191;-80
2020/12/02 03:55:54;;;;;;;14.40;12.90;;;5.30;99.90;;;;;;10587058;28;20264;-81
2020/12/02 04:00:57;;;;;;;16.37;14.13;;;5.40;99.90;;;;;;10571592;28;20675;-81
2020/12/02 04:05:58;;;;;;;15.33;13.70;;;5.40;99.90;;;;;;10556773;28;20302;-81
2020/12/02 04:11:00;;;;;;;15.70;13.47;;;5.40;99.90;;;;;;10547721;28;20279;-81
2020/12/02 04:16:04;;;;;;;16.90;13.43;;;5.40;99.90;;;;;;10575792;28;20714;-80
2020/12/02 04:21:05;;;;;;;16.50;13.53;;;5.40;99.90;;;;;;10588759;28;20223;-79
2020/12/02 04:26:07;;;;;;;16.47;14.00;;;5.40;99.90;;;;;;10570346;27;20294;-80
2020/12/02 04:31:09;;;;;;;16.20;13.90;;;5.40;99.90;;;;;;10552537;28;20686;-80
2020/12/02 04:36:12;;;;;;;15.13;13.13;;;5.50;99.90;;;;;;10587630;28;20571;-81
2020/12/02 04:41:16;;;;;;;18.90;15.67;;;5.50;99.90;;;;;;10586454;28;20717;-80
2020/12/02 04:46:22;;;;;;;14.90;13.07;;;5.50;99.90;;;;;;10589350;28;20211;-80
2020/12/02 04:51:26;;;;;;;16.27;13.60;;;5.50;99.90;;;;;;10587893;28;20635;-81
2020/12/02 04:56:28;;;;;;;16.93;14.30;;;5.50;99.90;;;;;;10569637;28;20311;-81
2020/12/02 05:01:32;;;;;;;18.47;15.87;;;5.40;99.90;;;;;;10568043;28;20269;-81
2020/12/02 05:06:36;;;;;;;14.47;12.80;;;5.40;99.90;;;;;;10587354;28;20677;-81
2020/12/02 05:11:39;;;;;;;16.33;12.87;;;5.50;99.90;;;;;;10586108;28;20253;-80
2020/12/02 05:16:41;;;;;;;15.47;13.87;;;5.40;99.90;;;;;;10584447;28;20241;-80
2020/12/02 05:21:43;;;;;;;14.33;12.77;;;5.50;99.90;;;;;;10555265;28;20203;-79
2020/12/02 05:26:47;;;;;;;14.30;12.20;;;5.50;99.90;;;;;;10558722;28;20220;-80
2020/12/02 05:31:50;;;;;;;11.73;9.80;;;5.50;99.90;;;;;;10556039;28;20195;-80
2020/12/02 05:36:53;;;;;;;14.80;12.73;;;5.50;99.90;;;;;;10561168;28;20286;-79
2020/12/02 05:41:56;;;;;;;14.73;13.10;;;5.50;99.90;;;;;;10569512;28;20223;-81
2020/12/02 05:47:01;;;;;;;14.23;12.77;;;5.50;99.90;;;;;;10562626;28;20278;-82
2020/12/02 05:52:03;;;;;;;13.57;12.13;;;5.50;99.90;;;;;;10552327;28;20754;-81
2020/12/02 05:57:07;;;;;;;15.20;13.00;;;5.50;99.90;;;;;;10557505;28;20303;-81
2020/12/02 06:02:09;;;;;;;15.97;13.50;;;5.50;99.90;;;;;;10565950;28;20219;-81
2020/12/02 06:07:11;;;;;;;14.83;13.30;;;5.50;99.90;;;;;;10585674;28;20260;-80
2020/12/02 06:12:14;;;;;;;13.13;11.80;;;5.40;99.90;;;;;;10590129;28;20184;-80
2020/12/02 06:17:28;;;;;;;14.37;12.17;;;5.40;99.90;;;;;;10566727;28;20684;-80
2020/12/02 06:22:47;;;;;;;15.30;12.60;;;5.50;99.90;;;;;;10566885;28;20589;-80
2020/12/02 06:27:49;;;;;;;14.33;12.20;;;5.50;99.90;;;;;;10560198;28;20302;-83
2020/12/02 06:33:13;;;;;;;14.90;13.37;;;5.50;99.90;;;;;;10561745;28;20203;-82
2020/12/02 06:38:24;;;;;;;14.37;12.40;;;5.50;99.90;;;;;;10577781;28;20312;-84
2020/12/02 06:43:29;;;;;;;14.30;12.80;;;5.50;99.90;;;;;;10577799;28;20207;-81
2020/12/02 06:48:35;;;;;;;13.97;12.37;;;5.50;99.90;;;;;;10548272;28;20287;-81
2020/12/02 06:53:37;;;;;;;18.37;13.90;;;5.50;99.90;;;;;;10573088;28;20196;-82
2020/12/02 06:58:38;;;;;;;15.97;12.30;;;5.40;99.90;;;;;;10573900;27;20215;-82
2020/12/02 07:03:43;;;;;;;13.97;12.00;;;5.40;99.90;;;;;;10557763;28;20257;-83
2020/12/02 07:08:46;;;;;;;17.60;13.57;;;5.30;99.90;;;;;;10567049;28;20244;-82
2020/12/02 07:13:51;;;;;;;17.93;13.53;;;5.30;99.90;;;;;;10588316;28;20195;-84
2020/12/02 07:18:59;;;;;;;20.50;14.50;;;5.20;99.90;;;;;;10586891;28;20207;-80
2020/12/02 07:24:03;;;;;;;14.83;12.03;;;5.20;99.90;;;;;;10585764;28;20651;-83
2020/12/02 07:29:13;;;;;;;18.10;13.03;;;5.10;99.90;;;;;;10558207;28;20239;-84
2020/12/02 07:34:18;;;;;;;16.73;13.60;;;5.10;99.90;;;;;;10568223;27;20686;-84
2020/12/02 07:39:22;;;;;;;16.87;14.10;;;5.10;99.90;;;;;;10602674;27;20225;-84
2020/12/02 07:44:26;;;;;;;16.73;13.77;;;5.00;99.90;;;;;;10609835;27;20192;-82
2020/12/02 07:49:30;;;;;;;16.17;12.90;;;5.00;99.90;;;;;;10608446;27;20187;-83
2020/12/02 07:54:32;;;;;;;18.90;14.70;;;5.00;99.90;;;;;;10562914;28;20850;-84
2020/12/02 07:59:34;;;;;;;16.07;13.30;;;5.00;99.90;;;;;;10584719;28;20226;-84
2020/12/02 08:04:54;;;;;;;17.93;14.30;;;5.10;99.90;;;;;;10569927;28;20791;-83
2020/12/02 08:09:59;;;;;;;17.73;14.23;;;5.10;99.90;;;;;;10581781;28;20210;-83
2020/12/02 08:15:06;;;;;;;18.10;14.33;;;5.20;99.90;;;;;;10587818;28;20222;-82
2020/12/02 08:20:27;;;;;;;17.83;13.73;;;5.20;99.90;;;;;;10569304;27;20221;-84
2020/12/02 08:25:34;;;;;;;16.47;13.53;;;5.20;99.90;;;;;;10575444;28;20697;-82
2020/12/02 08:30:36;;;;;;;18.10;15.20;;;5.30;99.90;;;;;;10593084;28;20191;-83
2020/12/02 08:35:40;;;;;;;18.50;14.23;;;5.30;99.90;;;;;;10582351;28;20744;-84
2020/12/02 08:40:46;;;;;;;18.30;13.23;;;5.30;99.90;;;;;;10593858;28;20230;-83
2020/12/02 08:45:55;;;;;;;20.30;14.90;;;5.40;99.90;;;;;;10584417;27;20223;-83
2020/12/02 08:50:57;;;;;;;15.77;13.50;;;5.30;99.90;;;;;;10583574;28;20270;-84
2020/12/02 08:56:00;;;;;;;14.93;13.43;;;5.30;99.90;;;;;;10574747;27;20219;-85
2020/12/02 09:01:02;;;;;;;16.97;13.73;;;5.30;99.90;;;;;;10587206;27;20263;-82
2020/12/02 09:06:03;;;;;;;17.63;13.67;;;5.30;99.90;;;;;;10575229;27;20216;-84
2020/12/02 09:11:06;;;;;;;18.00;14.00;;;5.30;99.90;;;;;;10585401;27;20195;-83
2020/12/02 09:16:08;;;;;;;19.27;13.80;;;5.30;99.90;;;;;;10581712;27;20257;-84
2020/12/02 09:21:10;;;;;;;17.40;13.90;;;5.30;99.90;;;;;;10587288;27;20219;-81
2020/12/02 09:26:17;;;;;;;16.73;12.93;;;5.30;99.90;;;;;;10590278;27;20234;-84
2020/12/02 09:31:22;;;;;;;18.60;14.40;;;5.30;99.90;;;;;;10574753;27;20207;-82
2020/12/02 09:36:24;;;;;;;16.33;13.20;;;5.20;99.90;;;;;;10578629;28;20223;-82
2020/12/02 09:42:06;;;;;;;13.20;10.90;;;5.20;99.90;;;;;;10573262;28;20247;-84
2020/12/02 09:47:11;;;;;;;12.80;10.40;;;5.20;99.90;;;;;;10574793;27;20275;-83
2020/12/02 09:52:41;;;;;;;16.10;13.00;;;5.10;99.90;;;;;;10577279;28;20195;-82
2020/12/02 09:57:43;;;;;;;14.60;11.80;;;5.20;99.90;;;;;;10553450;28;20219;-83
2020/12/02 10:03:11;;;;;;;15.73;11.60;;;5.20;99.90;;;;;;10577502;28;20207;-81
2020/12/02 10:08:28;;;;;;;14.50;12.43;;;5.20;99.90;;;;;;10527497;28;20211;-81
2020/12/02 10:14:06;;;;;;;12.30;9.90;;;5.30;99.90;;;;;;10577725;28;20737;-82
2020/12/02 10:19:42;;;;;;;13.83;11.10;;;5.30;99.90;;;;;;10585722;28;20207;-80
2020/12/02 10:25:03;;;;;;;14.77;11.63;;;5.40;99.90;;;;;;10569643;28;20233;-85
2020/12/02 10:30:25;;;;;;;15.30;12.37;;;5.30;99.90;;;;;;10586553;28;20191;-84
2020/12/02 10:35:30;;;;;;;20.00;14.80;;;5.40;99.90;;;;;;10576804;28;20226;-84
2020/12/02 10:40:39;;;;;;;18.50;14.27;;;5.40;99.90;;;;;;10579828;28;20594;-82
2020/12/02 10:45:40;;;;;;;22.20;16.00;;;5.40;99.90;;;;;;10557463;28;20218;-81
2020/12/02 10:50:43;;;;;;;20.37;16.07;;;5.40;99.90;;;;;;10571388;28;20195;-83
2020/12/02 10:55:45;;;;;;;20.60;16.20;;;5.50;99.90;;;;;;10566287;28;20215;-83
2020/12/02 11:00:52;;;;;;;21.67;16.00;;;5.60;99.90;;;;;;10584970;27;20252;-83
2020/12/02 11:06:11;;;;;;;20.80;16.10;;;5.60;99.90;;;;;;10560150;28;20276;-82
2020/12/02 11:11:23;;;;;;;23.97;16.40;;;5.60;99.90;;;;;;10572181;28;20685;-84
2020/12/02 11:16:32;;;;;;;23.40;15.73;;;5.60;99.90;;;;;;10561813;28;20223;-82
2020/12/02 11:21:49;;;;;;;19.63;15.87;;;5.50;99.90;;;;;;10581642;28;20219;-83
2020/12/02 11:26:51;;;;;;;19.80;15.47;;;5.60;99.90;;;;;;10572585;28;20222;-81
2020/12/02 11:32:26;;;;;;;21.13;15.10;;;5.70;99.90;;;;;;10590010;28;20205;-79
2020/12/02 11:37:34;;;;;;;21.30;14.10;;;5.80;99.90;;;;;;10561638;27;20322;-84
2020/12/02 11:42:42;;;;;;;21.27;15.37;;;5.80;99.90;;;;;;10580482;28;20279;-84
2020/12/02 11:48:02;;;;;;;19.50;15.23;;;5.70;99.90;;;;;;10579314;28;20306;-82
2020/12/02 11:53:37;;;;;;;24.50;18.30;;;5.70;99.90;;;;;;10578823;28;20198;-83
2020/12/02 11:58:41;;;;;;;23.37;16.57;;;5.60;99.90;;;;;;10558791;28;20222;-84
2020/12/02 12:03:55;;;;;;;20.23;13.63;;;5.40;99.90;;;;;;10581130;28;20219;-83
2020/12/02 12:09:09;;;;;;;22.93;15.53;;;5.40;99.90;;;;;;10582304;28;20207;-81
2020/12/02 12:14:18;;;;;;;20.30;14.83;;;5.40;99.90;;;;;;10578648;28;20603;-85
2020/12/02 12:19:32;;;;;;;17.17;13.83;;;5.50;99.90;;;;;;10551975;28;20219;-85
2020/12/02 12:24:35;;;;;;;20.90;16.03;;;5.40;99.90;;;;;;10580088;27;20575;-84
2020/12/02 12:29:36;;;;;;;22.90;16.57;;;5.40;99.90;;;;;;10563994;28;20838;-83
2020/12/02 12:34:45;;;;;;;21.57;15.43;;;5.40;99.90;;;;;;10581788;27;20203;-81
2020/12/02 12:39:54;;;;;;;24.10;16.50;;;5.40;99.90;;;;;;10594664;27;20195;-81
2020/12/02 12:45:01;;;;;;;26.17;17.77;;;5.40;99.90;;;;;;10600717;28;20215;-79
2020/12/02 12:50:05;;;;;;;21.60;16.20;;;5.50;99.90;;;;;;10581300;27;20291;-82
2020/12/02 12:55:08;;;;;;;23.37;15.50;;;5.50;99.90;;;;;;10598991;28;20227;-81
2020/12/02 13:00:10;;;;;;;25.73;16.23;;;5.50;99.90;;;;;;10594770;27;20674;-83
2020/12/02 13:05:13;;;;;;;18.00;12.17;;;5.50;99.90;;;;;;10597318;28;20207;-83
2020/12/02 13:10:26;;;;;;;22.10;15.70;;;5.40;99.90;;;;;;10600405;27;20227;-83
2020/12/02 13:15:36;;;;;;;21.60;16.17;;;5.40;99.90;;;;;;10605062;27;20713;-82
2020/12/02 13:20:45;;;;;;;22.90;16.20;;;5.30;99.90;;;;;;10587578;28;20411;-82
2020/12/02 13:26:02;;;;;;;25.33;17.00;;;5.30;99.90;;;;;;10580871;28;20597;-83
2020/12/02 13:31:12;;;;;;;24.40;16.90;;;5.40;99.90;;;;;;10601691;28;20244;-82
2020/12/02 13:36:20;;;;;;;23.40;16.20;;;5.40;99.90;;;;;;10599134;28;20219;-83
2020/12/02 13:41:31;;;;;;;26.17;17.27;;;5.40;99.90;;;;;;10601945;28;20302;-82
2020/12/02 13:46:34;;;;;;;22.90;15.33;;;5.40;99.90;;;;;;10583513;28;20268;-80
2020/12/02 13:51:50;;;;;;;25.63;17.17;;;5.30;99.90;;;;;;10591686;28;20196;-81
2020/12/02 13:57:02;;;;;;;23.03;16.43;;;5.20;99.90;;;;;;10588592;28;20221;-82
2020/12/02 14:02:16;;;;;;;22.93;15.97;;;5.20;99.90;;;;;;10572821;28;20227;-82
2020/12/02 14:07:19;;;;;;;21.70;15.53;;;5.20;99.90;;;;;;10569666;28;20306;-83
2020/12/02 14:12:25;;;;;;;23.70;16.03;;;5.20;99.90;;;;;;10597485;28;20536;-82
2020/12/02 14:17:27;;;;;;;24.80;15.97;;;5.20;99.90;;;;;;10599160;28;20211;-81
2020/12/02 14:22:31;;;;;;;22.40;14.90;;;5.20;99.90;;;;;;10603458;28;20225;-82
2020/12/02 14:27:36;;;;;;;22.27;15.70;;;5.20;99.90;;;;;;10591292;28;20242;-81
2020/12/02 14:32:38;;;;;;;22.10;16.47;;;5.30;99.90;;;;;;10597566;27;20230;-80
2020/12/02 14:37:41;;;;;;;24.20;16.20;;;5.20;99.20;;;;;;10596521;27;20290;-80
2020/12/02 14:42:44;;;;;;;22.80;16.30;;;5.10;99.00;;;;;;10598169;28;20199;-82
2020/12/02 14:47:46;;;;;;;23.13;16.37;;;5.10;98.40;;;;;;10594542;28;20211;-80
2020/12/02 14:52:47;;;;;;;20.20;15.00;;;5.00;98.80;;;;;;10598152;28;20187;-83
2020/12/02 14:58:04;;;;;;;22.97;15.43;;;4.90;98.70;;;;;;10574719;27;20211;-80
2020/12/02 15:03:07;;;;;;;23.57;16.23;;;4.90;98.50;;;;;;10585853;27;20713;-80
2020/12/02 15:08:27;;;;;;;22.07;17.10;;;4.90;99.90;;;;;;10591776;27;20283;-82
2020/12/02 15:13:29;;;;;;;23.00;15.10;;;4.80;99.10;;;;;;10594571;28;20213;-81
2020/12/02 15:18:31;;;;;;;18.70;13.70;;;4.80;99.80;;;;;;10603985;28;20211;-80
2020/12/02 15:23:35;;;;;;;21.57;14.80;;;4.90;98.80;;;;;;10585365;28;20223;-81
2020/12/02 15:28:38;;;;;;;21.10;16.10;;;4.90;99.10;;;;;;10593660;27;20207;-82
2020/12/02 15:33:41;;;;;;;24.80;15.70;;;4.90;98.90;;;;;;10586366;28;20199;-82
2020/12/02 15:38:53;;;;;;;22.37;16.53;;;4.80;98.60;;;;;;10586867;28;20215;-82
2020/12/02 15:44:11;;;;;;;21.17;14.13;;;4.80;99.30;;;;;;10599228;27;20656;-82
2020/12/02 15:49:23;;;;;;;22.30;14.60;;;4.80;98.80;;;;;;10590412;28;20215;-82
2020/12/02 15:54:37;;;;;;;20.67;15.40;;;4.90;99.60;;;;;;10594037;28;20195;-81
2020/12/02 15:59:48;;;;;;;21.07;14.90;;;4.80;97.70;;;;;;10592971;28;20688;-81
2020/12/02 16:04:50;;;;;;;20.03;13.50;;;4.80;98.30;;;;;;10597731;28;20207;-81
2020/12/02 16:09:55;;;;;;;20.67;14.10;;;4.80;98.10;;;;;;10599367;28;20209;-80
2020/12/02 16:15:01;;;;;;;18.83;13.33;;;4.70;98.50;;;;;;10586114;28;20227;-82
2020/12/02 16:20:06;;;;;;;19.33;13.70;;;4.70;98.30;;;;;;10599363;28;20701;-81
2020/12/02 16:25:16;;;;;;;20.73;13.70;;;4.70;98.10;;;;;;10607630;27;20229;-81
2020/12/02 16:30:18;;;;;;;17.50;13.20;;;4.70;97.50;;;;;;10575176;28;20188;-80
2020/12/02 16:35:21;;;;;;;19.10;13.93;;;4.70;97.00;;;;;;10589442;28;20245;-80
2020/12/02 16:40:25;;;;;;;17.07;12.53;;;4.60;96.70;;;;;;10582724;27;20227;-81
2020/12/02 16:45:34;;;;;;;21.50;14.10;;;4.60;97.70;;;;;;10594261;28;20590;-82
2020/12/02 16:50:48;;;;;;;19.50;14.27;;;4.60;97.10;;;;;;10569909;27;20854;-80
2020/12/02 16:56:00;;;;;;;21.23;14.43;;;4.60;97.40;;;;;;10583084;28;20253;-81
2020/12/02 17:01:05;;;;;;;22.27;14.47;;;4.60;97.90;;;;;;10591680;27;20219;-81
2020/12/02 17:06:08;;;;;;;20.47;12.93;;;4.60;96.60;;;;;;10599897;28;20217;-81
2020/12/02 17:11:32;;;;;;;23.10;15.40;;;4.50;95.80;;;;;;10597073;28;20199;-81
2020/12/02 17:16:45;;;;;;;20.50;14.27;;;4.40;96.80;;;;;;10597779;27;20219;-80
2020/12/02 17:22:00;;;;;;;20.37;14.73;;;4.40;95.80;;;;;;10586115;28;20258;-82
2020/12/02 17:27:13;;;;;;;21.20;15.00;;;4.40;96.70;;;;;;10586438;28;20223;-81
2020/12/02 17:32:21;;;;;;;18.90;14.30;;;4.50;96.90;;;;;;10597427;28;20666;-80
2020/12/02 17:37:34;;;;;;;19.17;13.70;;;4.50;96.80;;;;;;10579750;28;20246;-80
2020/12/02 17:42:54;;;;;;;21.63;15.30;;;4.50;97.10;;;;;;10561361;28;20203;-80
2020/12/02 17:48:09;;;;;;;24.30;16.90;;;4.60;96.80;;;;;;10589038;28;20218;-83
2020/12/02 17:53:13;;;;;;;21.97;15.03;;;4.50;96.40;;;;;;10582890;28;20215;-80
2020/12/02 17:58:35;;;;;;;20.50;14.30;;;4.50;96.40;;;;;;10583156;28;20245;-81
2020/12/02 18:03:49;;;;;;;19.23;14.43;;;4.50;95.40;;;;;;10585601;28;20618;-82
2020/12/02 18:09:18;;;;;;;24.20;16.20;;;4.50;94.30;;;;;;10588114;28;20211;-81
2020/12/02 18:14:34;;;;;;;21.90;14.90;;;4.40;96.00;;;;;;10560603;28;20229;-81
2020/12/02 18:19:42;;;;;;;22.30;14.73;;;4.40;95.30;;;;;;10584305;28;20202;-83
2020/12/02 18:25:06;;;;;;;21.60;15.33;;;4.40;96.30;;;;;;10597162;28;20225;-82
2020/12/02 18:30:19;;;;;;;20.83;15.67;;;4.50;95.40;;;;;;10564562;27;20861;-81
2020/12/02 18:35:33;;;;;;;19.50;14.57;;;4.50;96.00;;;;;;10592174;27;20228;-82
2020/12/02 18:40:48;;;;;;;19.10;14.93;;;4.50;96.10;;;;;;10565501;28;20286;-81
2020/12/02 18:45:53;;;;;;;22.53;16.60;;;4.50;95.30;;;;;;10585813;28;20248;-80
2020/12/02 18:50:56;;;;;;;19.27;14.10;;;4.50;95.20;;;;;;10591607;28;20538;-83
2020/12/02 18:56:05;;;;;;;20.93;15.30;;;4.40;94.40;;;;;;10587645;28;20219;-84
2020/12/02 19:01:10;;;;;;;19.63;15.23;;;4.40;95.70;;;;;;10588920;28;20324;-80
2020/12/02 19:06:14;;;;;;;19.83;14.40;;;4.40;95.00;;;;;;10592231;28;20670;-82
2020/12/02 19:11:31;;;;;;;24.10;16.30;;;4.50;96.00;;;;;;10600095;27;20213;-81
2020/12/02 19:16:55;;;;;;;22.17;15.20;;;4.50;94.60;;;;;;10590138;28;20217;-80
2020/12/02 19:22:20;;;;;;;21.23;14.70;;;4.40;94.40;;;;;;10559746;28;20215;-82
2020/12/02 19:27:31;;;;;;;21.60;15.23;;;4.40;95.40;;;;;;10570967;28;20246;-82
2020/12/02 19:32:43;;;;;;;20.27;14.20;;;4.40;95.20;;;;;;10592511;27;20636;-84
2020/12/02 19:38:06;;;;;;;21.00;15.20;;;4.50;94.50;;;;;;10588640;27;20314;-81
2020/12/02 19:43:37;;;;;;;21.77;14.87;;;4.50;94.90;;;;;;10583585;28;20222;-82
2020/12/02 19:48:42;;;;;;;23.57;16.80;;;4.50;95.40;;;;;;10587409;27;20221;-82
2020/12/02 19:53:47;;;;;;;20.20;14.77;;;4.50;94.90;;;;;;10575943;28;20238;-80
2020/12/02 19:59:18;;;;;;;19.40;14.83;;;4.50;93.80;;;;;;10547083;28;20220;-80
2020/12/02 20:04:22;;;;;;;21.90;15.70;;;4.50;94.40;;;;;;10552433;28;20286;-80
2020/12/02 20:09:38;;;;;;;21.30;15.30;;;4.50;94.40;;;;;;10590784;28;20211;-80
2020/12/02 20:14:51;;;;;;;19.67;15.30;;;4.50;94.60;;;;;;10551977;28;20573;-82
2020/12/02 20:20:06;;;;;;;22.57;16.77;;;4.50;94.90;;;;;;10582926;28;20290;-81
2020/12/02 20:25:18;;;;;;;21.00;15.10;;;4.60;94.00;;;;;;10582467;28;20259;-80
2020/12/02 20:30:23;;;;;;;26.07;17.20;;;4.50;95.50;;;;;;10571422;27;20195;-82
2020/12/02 20:35:38;;;;;;;24.00;17.57;;;4.50;95.40;;;;;;10577618;27;20284;-81
2020/12/02 20:40:42;;;;;;;20.53;15.30;;;4.50;94.90;;;;;;10587368;27;20279;-82
2020/12/02 20:45:43;;;;;;;21.10;16.37;;;4.50;93.70;;;;;;10559184;28;20251;-80
2020/12/02 20:50:55;;;;;;;22.17;16.37;;;4.50;93.80;;;;;;10574454;28;20266;-82
2020/12/02 20:56:06;;;;;;;24.63;17.10;;;4.40;94.50;;;;;;10575419;28;20613;-80
2020/12/02 21:01:08;;;;;;;20.07;15.17;;;4.40;94.90;;;;;;10583223;28;20695;-80
2020/12/02 21:06:12;;;;;;;21.70;15.20;;;4.40;95.30;;;;;;10564739;28;20224;-80
2020/12/02 21:11:15;;;;;;;20.37;15.30;;;4.50;95.70;;;;;;10578383;28;20671;-80
2020/12/02 21:16:31;;;;;;;22.73;16.93;;;4.50;96.00;;;;;;10583136;28;20726;-81
2020/12/02 21:21:48;;;;;;;22.93;15.77;;;4.50;95.00;;;;;;10565782;28;20297;-80
2020/12/02 21:27:03;;;;;;;25.50;18.13;;;4.50;94.60;;;;;;10584380;28;20218;-82
2020/12/02 21:32:12;;;;;;;23.73;16.17;;;4.60;95.00;;;;;;10575890;28;20198;-80
2020/12/02 21:37:27;;;;;;;24.00;17.30;;;4.50;95.40;;;;;;10570822;28;20227;-80
2020/12/02 21:42:45;;;;;;;27.67;18.70;;;4.50;95.30;;;;;;10582130;28;20226;-82
2020/12/02 21:48:01;;;;;;;27.20;18.43;;;4.40;96.10;;;;;;10583671;28;20225;-80
2020/12/02 21:53:54;;;;;;;27.73;18.43;;;4.50;96.40;;;;;;10583846;28;20190;-80
2020/12/02 21:59:01;;;;;;;26.00;18.63;;;4.40;95.80;;;;;;10536150;28;20272;-81
2020/12/02 22:04:28;;;;;;;26.10;18.50;;;4.40;96.20;;;;;;10584282;28;20199;-80
2020/12/02 22:09:41;;;;;;;22.83;17.13;;;4.30;96.10;;;;;;10566746;28;20216;-81
2020/12/02 22:14:45;;;;;;;24.83;18.43;;;4.30;96.90;;;;;;10582519;28;20187;-82
2020/12/02 22:19:59;;;;;;;25.00;17.30;;;4.30;97.20;;;;;;10585168;28;20279;-81
2020/12/02 22:25:19;;;;;;;26.87;18.80;;;4.30;97.00;;;;;;10563626;28;20251;-80
2020/12/02 22:30:27;;;;;;;18.57;13.57;;;4.30;96.60;;;;;;10575133;28;20547;-82
2020/12/02 22:35:45;;;;;;;29.90;20.00;;;4.30;97.10;;;;;;10565582;28;20238;-80
2020/12/02 22:41:07;;;;;;;28.30;20.10;;;4.30;97.60;;;;;;10588690;28;20202;-80
2020/12/02 22:46:36;;;;;;;26.90;20.80;;;4.40;97.10;;;;;;10588227;28;20215;-83
2020/12/02 22:51:40;;;;;;;32.43;22.97;;;4.30;96.90;;;;;;10596553;28;20250;-82
2020/12/02 22:56:44;;;;;;;29.63;22.43;;;4.20;97.20;;;;;;10601704;28;20298;-82
2020/12/02 23:01:46;;;;;;;31.60;22.20;;;4.10;97.80;;;;;;10603227;28;20679;-80
2020/12/02 23:06:55;;;;;;;32.53;22.53;;;4.00;98.10;;;;;;10591507;28;20211;-81
2020/12/02 23:12:09;;;;;;;31.57;23.20;;;3.90;98.00;;;;;;10591020;28;20204;-80
2020/12/02 23:17:19;;;;;;;34.13;24.33;;;3.80;98.80;;;;;;10551536;28;20214;-81
2020/12/02 23:22:21;;;;;;;30.00;22.57;;;3.70;99.00;;;;;;10553735;28;20204;-82
2020/12/02 23:27:36;;;;;;;32.23;23.43;;;3.60;98.90;;;;;;10551697;28;20211;-80
2020/12/02 23:32:58;;;;;;;32.23;23.30;;;3.60;99.30;;;;;;10553056;28;20319;-80
2020/12/02 23:38:00;;;;;;;29.40;22.37;;;3.70;99.80;;;;;;10540711;28;20318;-80
2020/12/02 23:43:08;;;;;;;33.63;23.57;;;3.70;99.90;;;;;;10566034;28;20280;-82
2020/12/02 23:48:16;;;;;;;33.57;22.00;;;3.80;99.90;;;;;;10556134;28;20200;-81
2020/12/02 23:53:21;;;;;;;30.87;22.17;;;3.90;99.90;;;;;;10555233;28;20582;-80
2020/12/02 23:58:25;;;;;;;35.40;24.27;;;4.00;99.90;;;;;;10578807;28;20226;-80
